createdAt,value
2023-05-25T00:01:02.069Z,100218.41
2023-05-25T00:03:30.655Z,100216.31
2023-05-25T00:05:57.636Z,100217.56
2023-05-25T00:08:25.011Z,100215.69
2023-05-25T00:10:52.404Z,100214.63
2023-05-25T00:13:19.312Z,100218.63
2023-05-25T00:15:48.465Z,100213.34
2023-05-25T00:18:15.572Z,100210.66
2023-05-25T00:20:42.727Z,100212.50
2023-05-25T00:23:09.859Z,100200.28
2023-05-25T00:25:36.869Z,100203.91
2023-05-25T00:28:04.854Z,100205.50
2023-05-25T00:30:31.983Z,100208.63
2023-05-25T00:33:01.013Z,100207.78
2023-05-25T00:35:28.095Z,100213.03
2023-05-25T00:37:55.403Z,100212.59
2023-05-25T00:40:22.523Z,100209.13
2023-05-25T00:42:50.616Z,100214.56
2023-05-25T00:45:17.724Z,100222.00
2023-05-25T00:47:46.106Z,100209.53
2023-05-25T00:50:17.629Z,100206.56
2023-05-25T00:52:44.682Z,100208.25
2023-05-25T00:55:19.308Z,100207.63
2023-05-25T00:57:53.374Z,100211.78
2023-05-25T01:00:23.750Z,100209.06
2023-05-25T01:02:54.044Z,100203.25
2023-05-25T01:05:25.641Z,100210.75
2023-05-25T01:07:56.665Z,100207.00
2023-05-25T01:10:28.656Z,100205.75
2023-05-25T01:12:59.108Z,100212.81
2023-05-25T01:15:26.903Z,100210.75
2023-05-25T01:17:56.496Z,100210.75
2023-05-25T01:20:25.050Z,100213.88
2023-05-25T01:22:59.737Z,100204.91
2023-05-25T01:25:36.568Z,100204.06
2023-05-25T01:28:09.631Z,100205.75
2023-05-25T01:30:40.675Z,100205.56
2023-05-25T01:33:10.357Z,100201.41
2023-05-25T01:35:42.082Z,100196.19
2023-05-25T01:38:11.084Z,100198.94
2023-05-25T01:40:40.136Z,100195.00
2023-05-25T01:43:07.174Z,100209.16
2023-05-25T01:45:35.689Z,100205.81
2023-05-25T01:48:18.049Z,100207.47
2023-05-25T01:50:59.049Z,100201.84
2023-05-25T01:53:36.051Z,100203.53
2023-05-25T01:56:08.477Z,100201.69
2023-05-25T01:58:40.248Z,100202.06
2023-05-25T02:01:10.317Z,100197.91
2023-05-25T02:03:40.092Z,100197.50
2023-05-25T02:06:08.508Z,100199.59
2023-05-25T02:08:37.053Z,100192.91
2023-05-25T02:11:04.129Z,100189.59
2023-05-25T02:13:31.446Z,100193.78
2023-05-25T02:15:58.543Z,100192.53
2023-05-25T02:18:25.949Z,100181.69
2023-05-25T02:20:54.948Z,100190.88
2023-05-25T02:23:22.059Z,100196.28
2023-05-25T02:25:50.873Z,100186.47
2023-05-25T02:28:17.978Z,100188.97
2023-05-25T02:30:45.235Z,100187.75
2023-05-25T02:33:13.111Z,100184.81
2023-05-25T02:35:40.085Z,100187.31
2023-05-25T02:38:07.932Z,100176.69
2023-05-25T02:40:35.772Z,100183.78
2023-05-25T02:43:04.074Z,100190.03
2023-05-25T02:45:31.224Z,100194.16
2023-05-25T02:48:03.064Z,100189.78
2023-05-25T02:50:33.944Z,100192.28
2023-05-25T02:53:05.035Z,100187.06
2023-05-25T02:55:32.232Z,100190.19
2023-05-25T02:57:59.773Z,100190.41
2023-05-25T03:00:49.966Z,100192.06
2023-05-25T03:03:20.845Z,100197.47
2023-05-25T03:05:49.102Z,100195.38
2023-05-25T03:08:24.261Z,100207.41
2023-05-25T03:11:06.356Z,100205.72
2023-05-25T03:13:40.738Z,100198.00
2023-05-25T03:16:09.880Z,100209.66
2023-05-25T03:18:37.368Z,100208.41
2023-05-25T03:21:04.799Z,100212.56
2023-05-25T03:23:31.796Z,100214.81
2023-05-25T03:26:00.360Z,100217.53
2023-05-25T03:28:27.461Z,100221.25
2023-05-25T03:30:55.101Z,100221.34
2023-05-25T03:33:23.522Z,100220.75
2023-05-25T03:35:50.973Z,100219.53
2023-05-25T03:38:18.288Z,100224.50
2023-05-25T03:40:46.011Z,100233.44
2023-05-25T03:43:13.104Z,100228.84
2023-05-25T03:45:40.062Z,100231.75
2023-05-25T03:48:07.100Z,100233.25
2023-05-25T03:50:36.180Z,100234.09
2023-05-25T03:53:03.414Z,100233.53
2023-05-25T03:55:30.345Z,100236.91
2023-05-25T03:57:57.848Z,100243.19
2023-05-25T04:00:26.571Z,100238.19
2023-05-25T04:03:09.489Z,100240.31
2023-05-25T04:05:38.619Z,100240.75
2023-05-25T04:08:05.735Z,100245.59
2023-05-25T04:10:35.457Z,100250.59
2023-05-25T04:13:02.834Z,100244.78
2023-05-25T04:15:30.489Z,100243.72
2023-05-25T04:18:05.473Z,100243.91
2023-05-25T04:20:32.868Z,100239.66
2023-05-25T04:23:01.623Z,100246.91
2023-05-25T04:25:29.664Z,100248.09
2023-05-25T04:28:02.129Z,100242.00
2023-05-25T04:30:44.473Z,100251.22
2023-05-25T04:33:27.696Z,100247.72
2023-05-25T04:36:03.575Z,100248.53
2023-05-25T04:38:31.924Z,100244.91
2023-05-25T04:41:01.084Z,100249.78
2023-05-25T04:43:28.413Z,100254.97
2023-05-25T04:45:55.795Z,100247.81
2023-05-25T04:48:22.861Z,100247.53
2023-05-25T04:50:50.181Z,100247.28
2023-05-25T04:53:17.731Z,100265.78
2023-05-25T04:55:46.204Z,100268.66
2023-05-25T04:58:14.768Z,100256.13
2023-05-25T05:00:45.064Z,100263.66
2023-05-25T05:03:12.249Z,100265.63
2023-05-25T05:05:39.517Z,100267.25
2023-05-25T05:08:09.834Z,100269.91
2023-05-25T05:10:38.205Z,100273.28
2023-05-25T05:13:12.249Z,100273.81
2023-05-25T05:15:42.123Z,100279.75
2023-05-25T05:18:09.372Z,100271.44
2023-05-25T05:20:37.217Z,100274.28
2023-05-25T05:23:09.964Z,100271.66
2023-05-25T05:25:37.029Z,100292.28
2023-05-25T05:28:04.650Z,100289.84
2023-05-25T05:33:19.115Z,100304.38
2023-05-25T05:35:47.433Z,100309.31
2023-05-25T05:38:19.189Z,100318.06
2023-05-25T05:40:48.225Z,100307.13
2023-05-25T05:43:20.201Z,100307.06
2023-05-25T05:45:49.140Z,100309.16
2023-05-25T05:48:17.013Z,100306.44
2023-05-25T05:50:45.073Z,100317.97
2023-05-25T05:53:13.615Z,100318.31
2023-05-25T05:55:41.084Z,100324.41
2023-05-25T05:58:08.424Z,100326.97
2023-05-25T06:00:35.401Z,100316.47
2023-05-25T06:03:04.054Z,100314.44
2023-05-25T06:05:32.156Z,100311.25
2023-05-25T06:08:00.725Z,100319.47
2023-05-25T06:10:27.629Z,100323.16
2023-05-25T06:12:54.624Z,100324.88
2023-05-25T06:15:21.990Z,100329.63
2023-05-25T06:17:51.161Z,100324.66
2023-05-25T06:20:19.983Z,100319.41
2023-05-25T06:22:47.441Z,100320.72
2023-05-25T06:27:58.191Z,100331.06
2023-05-25T06:30:25.401Z,100342.56
2023-05-25T06:32:52.910Z,100333.94
2023-05-25T06:35:21.432Z,100341.41
2023-05-25T06:37:51.291Z,100341.53
2023-05-25T06:40:19.786Z,100340.44
2023-05-25T06:42:46.921Z,100341.53
2023-05-25T06:45:44.020Z,100338.81
2023-05-25T06:48:12.302Z,100339.31
2023-05-25T06:50:40.742Z,100342.59
2023-05-25T06:53:07.764Z,100340.72
2023-05-25T06:55:34.715Z,100340.16
2023-05-25T06:58:02.037Z,100346.69
2023-05-25T07:00:31.027Z,100342.28
2023-05-25T07:02:59.412Z,100342.88
2023-05-25T07:05:26.437Z,100332.88
2023-05-25T07:07:54.717Z,100334.69
2023-05-25T07:10:23.245Z,100332.72
2023-05-25T07:12:50.148Z,100333.50
2023-05-25T07:15:17.248Z,100318.81
2023-05-25T07:17:44.188Z,100326.00
2023-05-25T07:20:12.588Z,100319.72
2023-05-25T07:22:39.740Z,100325.34
2023-05-25T07:25:09.455Z,100323.41
2023-05-25T07:27:36.867Z,100329.31
2023-05-25T07:30:04.967Z,100330.97
2023-05-25T07:32:33.225Z,100328.91
2023-05-25T07:35:00.296Z,100323.72
2023-05-25T07:37:27.290Z,100323.94
2023-05-25T07:39:54.152Z,100323.28
2023-05-25T07:42:23.325Z,100318.47
2023-05-25T07:44:51.305Z,100323.78
2023-05-25T07:47:18.252Z,100319.34
2023-05-25T07:49:45.480Z,100323.16
2023-05-25T07:52:12.393Z,100315.97
2023-05-25T07:54:39.272Z,100326.44
2023-05-25T07:57:08.094Z,100323.88
2023-05-25T07:59:36.820Z,100323.66
2023-05-25T08:02:07.621Z,100323.53
2023-05-25T08:04:35.123Z,100311.69
2023-05-25T08:07:02.193Z,100319.94
2023-05-25T08:09:29.134Z,100314.59
2023-05-25T08:12:07.772Z,100326.88
2023-05-25T08:14:44.451Z,100317.84
2023-05-25T08:17:11.464Z,100314.41
2023-05-25T08:19:38.653Z,100322.94
2023-05-25T08:22:05.882Z,100330.84
2023-05-25T08:24:32.874Z,100321.91
2023-05-25T08:27:00.019Z,100308.03
2023-05-25T08:29:26.988Z,100317.06
2023-05-25T08:31:55.414Z,100316.03
2023-05-25T08:34:23.298Z,100313.91
2023-05-25T08:36:50.610Z,100313.38
2023-05-25T08:39:17.601Z,100320.84
2023-05-25T08:41:46.418Z,100321.13
2023-05-25T08:44:13.715Z,100321.13
2023-05-25T08:46:41.675Z,100325.28
2023-05-25T08:49:12.496Z,100327.75
2023-05-25T08:51:50.354Z,100322.53
2023-05-25T08:54:22.005Z,100321.44
2023-05-25T08:56:52.632Z,100326.63
2023-05-25T08:59:36.269Z,100329.97
2023-05-25T09:02:21.494Z,100331.06
2023-05-25T09:04:51.358Z,100325.78
2023-05-25T09:07:19.713Z,100330.50
2023-05-25T09:09:48.946Z,100314.00
2023-05-25T09:12:17.308Z,100314.00
2023-05-25T09:14:45.098Z,100316.72
2023-05-25T09:17:13.420Z,100316.97
2023-05-25T09:19:40.562Z,100321.22
2023-05-25T09:24:42.862Z,100317.91
2023-05-25T09:27:12.397Z,100315.81
2023-05-25T09:29:39.411Z,100312.22
2023-05-25T09:32:07.483Z,100324.22
2023-05-25T09:34:35.170Z,100318.59
2023-05-25T09:37:04.124Z,100315.09
2023-05-25T09:39:33.431Z,100316.66
2023-05-25T09:42:01.125Z,100316.03
2023-05-25T09:44:28.658Z,100313.41
2023-05-25T09:46:56.366Z,100315.06
2023-05-25T09:50:28.389Z,100314.81
2023-05-25T09:52:59.647Z,100314.09
2023-05-25T09:55:44.000Z,100329.22
2023-05-25T09:58:18.568Z,100330.75
2023-05-25T10:00:46.079Z,100327.09
2023-05-25T10:03:15.685Z,100336.53
2023-05-25T10:05:42.771Z,100323.97
2023-05-25T10:08:11.987Z,100334.69
2023-05-25T10:10:42.786Z,100322.19
2023-05-25T10:20:16.876Z,100315.84
2023-05-25T10:23:09.518Z,100317.44
2023-05-25T10:25:45.532Z,100323.25
2023-05-25T10:28:20.017Z,100327.84
2023-05-25T10:30:51.765Z,100315.16
2023-05-25T10:33:49.282Z,100311.19
2023-05-25T10:36:46.330Z,100306.91
2023-05-25T10:39:44.836Z,100304.09
2023-05-25T10:42:14.366Z,100312.66
2023-05-25T10:44:42.903Z,100308.50
2023-05-25T10:47:10.923Z,100293.56
2023-05-25T10:49:54.687Z,100306.59
2023-05-25T10:52:26.436Z,100303.81
2023-05-25T10:54:56.514Z,100297.75
2023-05-25T10:57:25.643Z,100302.13
2023-05-25T11:04:16.925Z,100307.81
2023-05-25T11:07:08.483Z,100290.78
2023-05-25T11:09:42.058Z,100307.69
2023-05-25T11:12:19.775Z,100304.00
2023-05-25T11:15:30.080Z,100305.91
2023-05-25T11:18:01.562Z,100290.78
2023-05-25T11:20:30.281Z,100297.06
2023-05-25T11:22:58.668Z,100302.75
2023-05-25T11:25:51.557Z,100305.28
2023-05-25T11:28:18.713Z,100299.56
2023-05-25T11:30:47.299Z,100315.19
2023-05-25T11:33:14.700Z,100311.50
2023-05-25T11:35:42.939Z,100298.75
2023-05-25T11:38:10.423Z,100315.94
2023-05-25T11:40:40.340Z,100300.22
2023-05-25T11:43:10.805Z,100308.63
2023-05-25T11:45:38.544Z,100310.19
2023-05-25T11:48:13.377Z,100317.44
2023-05-25T11:50:40.596Z,100305.22
2023-05-25T11:53:07.659Z,100309.28
2023-05-25T11:55:37.521Z,100303.78
2023-05-25T11:58:04.637Z,100296.53
2023-05-25T12:00:31.876Z,100296.44
2023-05-25T12:02:59.752Z,100285.47
2023-05-25T12:05:38.143Z,100281.75
2023-05-25T12:08:05.216Z,100286.66
2023-05-25T12:10:32.637Z,100285.25
2023-05-25T12:13:02.384Z,100286.69
2023-05-25T12:15:31.755Z,100279.56
2023-05-25T12:18:01.024Z,100291.34
2023-05-25T12:20:30.032Z,100290.38
2023-05-25T12:22:58.757Z,100290.97
2023-05-25T12:25:26.080Z,100282.31
2023-05-25T12:28:10.701Z,100284.63
2023-05-25T12:30:41.204Z,100276.25
2023-05-25T12:33:14.696Z,100265.56
2023-05-25T12:35:48.796Z,100286.75
2023-05-25T12:38:30.419Z,100275.34
2023-05-25T12:41:08.804Z,100275.91
2023-05-25T12:43:39.369Z,100273.72
2023-05-25T12:46:06.485Z,100270.97
2023-05-25T12:48:34.775Z,100281.81
2023-05-25T12:51:03.737Z,100272.16
2023-05-25T12:53:30.677Z,100268.31
2023-05-25T12:56:04.764Z,100274.34
2023-05-25T12:58:31.675Z,100274.38
2023-05-25T13:00:59.099Z,100265.00
2023-05-25T13:03:26.715Z,100278.22
2023-05-25T13:06:01.050Z,100284.63
2023-05-25T13:08:29.643Z,100276.13
2023-05-25T13:10:56.622Z,100267.75
2023-05-25T13:13:23.958Z,100272.16
2023-05-25T13:15:51.663Z,100282.75
2023-05-25T13:18:18.578Z,100267.69
2023-05-25T13:20:53.229Z,100261.16
2023-05-25T13:23:22.625Z,100259.25
2023-05-25T13:25:51.552Z,100261.41
2023-05-25T13:28:18.548Z,100260.91
2023-05-25T13:30:45.488Z,100262.81
2023-05-25T13:33:12.877Z,100258.38
2023-05-25T13:35:39.810Z,100264.44
2023-05-25T13:38:07.824Z,100258.41
2023-05-25T13:40:34.944Z,100257.31
2023-05-25T13:43:03.363Z,100255.66
2023-05-25T13:45:30.651Z,100251.47
2023-05-25T13:47:57.758Z,100238.81
2023-05-25T13:50:25.101Z,100249.06
2023-05-25T13:52:52.020Z,100247.91
2023-05-25T13:55:19.425Z,100261.97
2023-05-25T13:57:46.501Z,100241.84
2023-05-25T14:00:15.781Z,100245.19
2023-05-25T14:02:43.864Z,100250.69
2023-05-25T14:05:10.944Z,100246.03
2023-05-25T14:07:39.869Z,100246.81
2023-05-25T14:10:08.325Z,100236.91
2023-05-25T14:12:37.956Z,100252.88
2023-05-25T14:15:06.262Z,100244.94
2023-05-25T14:17:34.987Z,100252.88
2023-05-25T14:20:27.567Z,100246.03
2023-05-25T14:22:55.871Z,100249.03
2023-05-25T14:25:25.448Z,100240.78
2023-05-25T14:27:52.947Z,100233.63
2023-05-25T14:30:20.261Z,100239.41
2023-05-25T14:32:48.973Z,100233.38
2023-05-25T14:35:16.603Z,100223.69
2023-05-25T14:37:46.433Z,100234.16
2023-05-25T14:40:13.862Z,100228.09
2023-05-25T14:42:42.664Z,100231.41
2023-05-25T14:45:12.017Z,100226.44
2023-05-25T14:47:39.980Z,100217.38
2023-05-25T14:50:09.173Z,100225.84
2023-05-25T14:52:37.327Z,100243.56
2023-05-25T14:55:05.329Z,100239.69
2023-05-25T14:57:33.921Z,100236.06
2023-05-25T15:00:00.972Z,100242.97
2023-05-25T15:02:28.299Z,100241.63
2023-05-25T15:04:55.988Z,100251.25
2023-05-25T15:07:24.942Z,100241.06
2023-05-25T15:09:53.101Z,100239.38
2023-05-25T15:12:20.354Z,100234.44
2023-05-25T15:14:47.401Z,100239.97
2023-05-25T15:17:14.336Z,100239.38
2023-05-25T15:19:41.498Z,100233.91
2023-05-25T15:22:08.545Z,100243.53
2023-05-25T15:24:38.345Z,100233.63
2023-05-25T15:27:08.322Z,100235.28
2023-05-25T15:29:39.532Z,100233.31
2023-05-25T15:32:16.436Z,100232.25
2023-05-25T15:34:44.607Z,100228.38
2023-05-25T15:37:13.077Z,100231.97
2023-05-25T15:39:41.533Z,100233.03
2023-05-25T15:42:08.363Z,100219.00
2023-05-25T15:44:35.307Z,100220.91
2023-05-25T15:47:03.872Z,100230.53
2023-05-25T15:49:31.801Z,100230.28
2023-05-25T15:51:58.720Z,100228.34
2023-05-25T15:54:25.740Z,100234.63
2023-05-25T15:56:54.012Z,100223.09
2023-05-25T15:59:21.193Z,100221.47
2023-05-25T16:01:49.149Z,100217.88
2023-05-25T16:04:16.112Z,100215.91
2023-05-25T16:06:43.064Z,100215.41
2023-05-25T16:09:10.015Z,100208.81
2023-05-25T16:11:37.861Z,100221.50
2023-05-25T16:14:06.092Z,100222.34
2023-05-25T16:16:33.130Z,100227.28
2023-05-25T16:19:01.085Z,100218.75
2023-05-25T16:21:28.208Z,100222.59
2023-05-25T16:23:55.273Z,100217.34
2023-05-25T16:26:22.493Z,100223.66
2023-05-25T16:28:49.751Z,100220.09
2023-05-25T16:31:18.352Z,100227.53
2023-05-25T16:33:45.300Z,100213.78
2023-05-25T16:36:12.334Z,100228.63
2023-05-25T16:38:39.419Z,100223.09
2023-05-25T16:41:06.840Z,100220.91
2023-05-25T16:43:33.827Z,100218.47
2023-05-25T16:46:00.828Z,100219.88
2023-05-25T16:48:29.247Z,100222.31
2023-05-25T16:50:56.187Z,100225.88
2023-05-25T16:53:23.232Z,100214.88
2023-05-25T16:55:50.770Z,100218.78
2023-05-25T16:58:17.693Z,100211.06
2023-05-25T17:00:44.550Z,100216.03
2023-05-25T17:03:11.935Z,100212.13
2023-05-25T17:05:41.057Z,100210.22
2023-05-25T17:08:08.261Z,100210.50
2023-05-25T17:10:35.186Z,100213.78
2023-05-25T17:13:02.068Z,100225.06
2023-05-25T17:15:28.941Z,100222.59
2023-05-25T17:17:56.004Z,100219.84
2023-05-25T17:20:23.074Z,100218.22
2023-05-25T17:22:51.300Z,100211.00
2023-05-25T17:25:18.231Z,100210.22
2023-05-25T17:27:45.369Z,100212.13
2023-05-25T17:30:13.594Z,100212.41
2023-05-25T17:32:40.748Z,100211.88
2023-05-25T17:35:08.870Z,100213.50
2023-05-25T17:37:35.999Z,100206.38
2023-05-25T17:40:05.280Z,100210.25
2023-05-25T17:42:34.395Z,100211.06
2023-05-25T17:45:01.257Z,100208.31
2023-05-25T17:47:29.605Z,100212.44
2023-05-25T17:49:56.583Z,100219.88
2023-05-25T17:52:23.552Z,100221.78
2023-05-25T17:54:53.022Z,100218.50
2023-05-25T17:57:21.265Z,100227.31
2023-05-25T17:59:49.081Z,100217.97
2023-05-25T18:02:17.288Z,100222.63
2023-05-25T18:04:44.288Z,100215.72
2023-05-25T18:07:11.090Z,100219.31
2023-05-25T18:09:38.025Z,100221.81
2023-05-25T18:12:05.741Z,100229.78
2023-05-25T18:14:34.081Z,100221.56
2023-05-25T18:17:01.656Z,100223.19
2023-05-25T18:19:30.542Z,100229.78
2023-05-25T18:22:15.893Z,100224.00
2023-05-25T18:24:42.755Z,100231.69
2023-05-25T18:27:09.606Z,100239.97
2023-05-25T18:29:37.818Z,100238.59
2023-05-25T18:32:05.473Z,100239.13
2023-05-25T18:34:32.421Z,100231.16
2023-05-25T18:36:59.523Z,100227.03
2023-05-25T18:39:26.429Z,100229.19
2023-05-25T18:41:53.310Z,100231.94
2023-05-25T18:44:20.258Z,100233.56
2023-05-25T18:46:48.990Z,100236.31
2023-05-25T18:49:15.981Z,100237.97
2023-05-25T18:51:43.341Z,100247.59
2023-05-25T18:54:10.220Z,100242.38
2023-05-25T18:56:37.710Z,100248.94
2023-05-25T18:59:05.341Z,100249.47
2023-05-25T19:01:33.484Z,100254.41
2023-05-25T19:04:01.985Z,100247.78
2023-05-25T19:06:29.492Z,100256.31
2023-05-25T19:08:56.594Z,100243.38
2023-05-25T19:11:23.811Z,100243.34
2023-05-25T19:13:50.723Z,100248.81
2023-05-25T19:16:17.957Z,100250.44
2023-05-25T19:18:45.369Z,100252.06
2023-05-25T19:21:13.938Z,100251.47
2023-05-25T19:23:41.000Z,100256.38
2023-05-25T19:26:08.116Z,100254.13
2023-05-25T19:28:34.931Z,100261.78
2023-05-25T19:31:01.828Z,100262.56
2023-05-25T19:33:29.163Z,100261.16
2023-05-25T19:35:57.922Z,100270.44
2023-05-25T19:38:28.873Z,100275.34
2023-05-25T19:41:01.899Z,100271.97
2023-05-25T19:43:28.852Z,100280.47
2023-05-25T19:45:55.854Z,100282.91
2023-05-25T19:48:23.031Z,100286.16
2023-05-25T19:50:50.722Z,100287.78
2023-05-25T19:53:18.554Z,100288.81
2023-05-25T19:55:47.019Z,100286.00
2023-05-25T19:58:14.101Z,100283.22
2023-05-25T20:00:41.125Z,100284.28
2023-05-25T20:03:11.204Z,100289.38
2023-05-25T20:05:38.565Z,100292.09
2023-05-25T20:08:06.118Z,100299.16
2023-05-25T20:10:33.310Z,100298.03
2023-05-25T20:13:01.787Z,100298.44
2023-05-25T20:15:29.269Z,100299.66
2023-05-25T20:17:56.270Z,100295.28
2023-05-25T20:20:23.821Z,100301.28
2023-05-25T20:22:50.746Z,100304.97
2023-05-25T20:25:18.381Z,100303.84
2023-05-25T20:27:45.314Z,100291.00
2023-05-25T20:30:15.518Z,100298.34
2023-05-25T20:32:43.154Z,100296.38
2023-05-25T20:35:11.458Z,100304.25
2023-05-25T20:37:38.384Z,100300.13
2023-05-25T20:40:06.607Z,100298.41
2023-05-25T20:42:40.307Z,100296.66
2023-05-25T20:45:09.183Z,100307.78
2023-05-25T20:47:39.880Z,100301.34
2023-05-25T20:50:07.954Z,100307.25
2023-05-25T20:52:35.026Z,100315.88
2023-05-25T20:55:02.027Z,100313.00
2023-05-25T20:57:29.060Z,100321.84
2023-05-25T20:59:56.141Z,100323.16
2023-05-25T21:02:23.079Z,100326.53
2023-05-25T21:04:51.488Z,100333.34
2023-05-25T21:07:18.448Z,100323.16
2023-05-25T21:09:45.474Z,100328.03
2023-05-25T21:12:12.306Z,100329.22
2023-05-25T21:14:39.256Z,100341.56
2023-05-25T21:17:06.136Z,100337.66
2023-05-25T21:19:33.320Z,100339.13
2023-05-25T21:22:01.647Z,100335.81
2023-05-25T21:24:29.083Z,100345.00
2023-05-25T21:26:56.014Z,100343.34
2023-05-25T21:29:23.016Z,100340.88
2023-05-25T21:31:50.709Z,100346.09
2023-05-25T21:34:17.712Z,100353.28
2023-05-25T21:36:44.637Z,100352.69
2023-05-25T21:39:13.594Z,100358.53
2023-05-25T21:41:41.119Z,100358.19
2023-05-25T21:44:12.012Z,100361.97
2023-05-25T21:46:39.305Z,100358.69
2023-05-25T21:49:06.549Z,100353.22
2023-05-25T21:51:33.457Z,100355.13
2023-05-25T21:54:00.749Z,100357.84
2023-05-25T21:56:29.593Z,100368.22
2023-05-25T21:58:56.590Z,100362.16
2023-05-25T22:01:24.026Z,100372.25
2023-05-25T22:03:51.108Z,100371.44
2023-05-25T22:06:18.681Z,100365.38
2023-05-25T22:08:46.368Z,100374.06
2023-05-25T22:11:13.452Z,100373.44
2023-05-25T22:13:42.637Z,100371.69
2023-05-25T22:16:09.581Z,100377.63
2023-05-25T22:18:38.429Z,100374.81
2023-05-25T22:21:05.905Z,100385.84
2023-05-25T22:23:33.048Z,100380.63
2023-05-25T22:25:59.954Z,100378.13
2023-05-25T22:28:26.886Z,100381.09
2023-05-25T22:30:55.177Z,100382.66
2023-05-25T22:33:22.204Z,100387.44
2023-05-25T22:35:49.379Z,100382.19
2023-05-25T22:38:17.319Z,100379.94
2023-05-25T22:40:44.756Z,100386.38
2023-05-25T22:43:11.733Z,100390.28
2023-05-25T22:45:40.730Z,100392.91
2023-05-25T22:48:11.362Z,100398.47
2023-05-25T22:50:38.537Z,100396.81
2023-05-25T22:53:05.538Z,100402.03
2023-05-25T22:55:32.459Z,100403.69
2023-05-25T22:57:59.350Z,100405.13
2023-05-25T23:00:26.492Z,100402.84
2023-05-25T23:02:53.493Z,100410.09
2023-05-25T23:05:22.392Z,100412.13
2023-05-25T23:07:49.325Z,100416.16
2023-05-25T23:10:16.510Z,100405.25
2023-05-25T23:12:43.406Z,100414.47
2023-05-25T23:15:11.557Z,100413.66
2023-05-25T23:17:38.582Z,100417.19
2023-05-25T23:20:08.079Z,100418.88
2023-05-25T23:22:36.545Z,100420.16
2023-05-25T23:25:03.864Z,100410.34
2023-05-25T23:27:32.057Z,100407.59
2023-05-25T23:29:59.402Z,100411.66
2023-05-25T23:32:26.353Z,100410.31
2023-05-25T23:34:53.285Z,100406.09
2023-05-25T23:37:20.750Z,100406.34
2023-05-25T23:39:49.357Z,100417.84
2023-05-25T23:42:16.356Z,100420.66
2023-05-25T23:44:43.421Z,100421.03
2023-05-25T23:47:10.499Z,100427.50
2023-05-25T23:49:37.476Z,100426.59
2023-05-25T23:52:06.146Z,100418.88
2023-05-25T23:54:33.180Z,100419.72
2023-05-25T23:58:15.888Z,100426.97
